sensor_id;sensor_type;location;lat;lon;timestamp;temperature;humidity
39849;DHT22;25518;47.878;15.914;2022-11-20T00:00:48;0.90;99.90
39849;DHT22;25518;47.878;15.914;2022-11-20T00:03:38;0.90;99.90
39849;DHT22;25518;47.878;15.914;2022-11-20T00:06:29;0.90;99.90
39849;DHT22;25518;47.878;15.914;2022-11-20T00:09:19;0.80;99.90
39849;DHT22;25518;47.878;15.914;2022-11-20T00:12:09;0.90;99.90
39849;DHT22;25518;47.878;15.914;2022-11-20T00:14:59;1.00;99.90
39849;DHT22;25518;47.878;15.914;2022-11-20T00:17:48;1.00;99.90
39849;DHT22;25518;47.878;15.914;2022-11-20T00:20:38;0.90;99.90
39849;DHT22;25518;47.878;15.914;2022-11-20T00:23:28;0.90;99.90
39849;DHT22;25518;47.878;15.914;2022-11-20T00:26:19;1.00;99.90
39849;DHT22;25518;47.878;15.914;2022-11-20T00:29:09;1.20;99.90
39849;DHT22;25518;47.878;15.914;2022-11-20T00:31:59;1.20;99.90
39849;DHT22;25518;47.878;15.914;2022-11-20T00:34:49;1.20;99.90
39849;DHT22;25518;47.878;15.914;2022-11-20T00:37:38;1.20;99.90
39849;DHT22;25518;47.878;15.914;2022-11-20T00:40:27;1.20;99.90
39849;DHT22;25518;47.878;15.914;2022-11-20T00:43:17;1.30;99.90
39849;DHT22;25518;47.878;15.914;2022-11-20T00:46:10;1.40;99.90
39849;DHT22;25518;47.878;15.914;2022-11-20T00:48:59;1.30;99.90
39849;DHT22;25518;47.878;15.914;2022-11-20T00:51:49;1.20;99.90
39849;DHT22;25518;47.878;15.914;2022-11-20T00:54:39;1.10;99.90
39849;DHT22;25518;47.878;15.914;2022-11-20T00:57:29;1.10;99.90
39849;DHT22;25518;47.878;15.914;2022-11-20T01:00:18;1.20;99.90
39849;DHT22;25518;47.878;15.914;2022-11-20T01:03:08;1.30;99.90
39849;DHT22;25518;47.878;15.914;2022-11-20T01:06:08;1.30;99.90
39849;DHT22;25518;47.878;15.914;2022-11-20T01:09:00;1.20;99.90
39849;DHT22;25518;47.878;15.914;2022-11-20T01:11:50;1.20;99.90
39849;DHT22;25518;47.878;15.914;2022-11-20T01:14:40;1.20;99.90
39849;DHT22;25518;47.878;15.914;2022-11-20T01:17:31;1.20;99.90
39849;DHT22;25518;47.878;15.914;2022-11-20T01:20:20;1.10;99.90
39849;DHT22;25518;47.878;15.914;2022-11-20T01:23:10;1.20;99.90
39849;DHT22;25518;47.878;15.914;2022-11-20T01:26:01;1.30;99.90
39849;DHT22;25518;47.878;15.914;2022-11-20T01:28:51;1.40;99.90
39849;DHT22;25518;47.878;15.914;2022-11-20T01:31:41;1.40;99.90
39849;DHT22;25518;47.878;15.914;2022-11-20T01:34:31;1.40;99.90
39849;DHT22;25518;47.878;15.914;2022-11-20T01:37:21;1.50;99.90
39849;DHT22;25518;47.878;15.914;2022-11-20T01:40:11;1.40;99.90
39849;DHT22;25518;47.878;15.914;2022-11-20T01:43:17;1.50;99.90
39849;DHT22;25518;47.878;15.914;2022-11-20T01:46:16;1.60;99.90
39849;DHT22;25518;47.878;15.914;2022-11-20T01:49:19;1.60;99.90
39849;DHT22;25518;47.878;15.914;2022-11-20T01:52:17;1.60;99.90
39849;DHT22;25518;47.878;15.914;2022-11-20T01:55:11;1.50;99.90
39849;DHT22;25518;47.878;15.914;2022-11-20T01:58:03;1.10;99.90
39849;DHT22;25518;47.878;15.914;2022-11-20T02:00:54;1.70;99.90
39849;DHT22;25518;47.878;15.914;2022-11-20T02:03:44;1.70;99.90
39849;DHT22;25518;47.878;15.914;2022-11-20T02:09:27;1.60;99.90
39849;DHT22;25518;47.878;15.914;2022-11-20T02:12:17;1.60;99.90
39849;DHT22;25518;47.878;15.914;2022-11-20T02:15:26;1.50;99.90
39849;DHT22;25518;47.878;15.914;2022-11-20T02:18:18;1.50;99.90
39849;DHT22;25518;47.878;15.914;2022-11-20T02:24:18;1.50;99.90
39849;DHT22;25518;47.878;15.914;2022-11-20T02:27:12;1.70;99.90
39849;DHT22;25518;47.878;15.914;2022-11-20T02:30:04;1.70;99.90
39849;DHT22;25518;47.878;15.914;2022-11-20T02:32:58;1.70;99.90
39849;DHT22;25518;47.878;15.914;2022-11-20T02:35:47;1.70;99.90
39849;DHT22;25518;47.878;15.914;2022-11-20T02:38:37;1.70;99.90
39849;DHT22;25518;47.878;15.914;2022-11-20T02:41:32;1.60;99.90
39849;DHT22;25518;47.878;15.914;2022-11-20T02:44:22;1.60;99.90
39849;DHT22;25518;47.878;15.914;2022-11-20T02:47:12;1.60;99.90
39849;DHT22;25518;47.878;15.914;2022-11-20T02:50:02;1.60;99.90
39849;DHT22;25518;47.878;15.914;2022-11-20T02:52:52;1.50;99.90
39849;DHT22;25518;47.878;15.914;2022-11-20T02:55:41;1.60;99.90
39849;DHT22;25518;47.878;15.914;2022-11-20T02:58:31;1.70;99.90
39849;DHT22;25518;47.878;15.914;2022-11-20T03:01:21;1.60;99.90
39849;DHT22;25518;47.878;15.914;2022-11-20T03:18:17;1.70;99.90
39849;DHT22;25518;47.878;15.914;2022-11-20T03:21:08;1.60;99.90
39849;DHT22;25518;47.878;15.914;2022-11-20T03:23:58;1.50;99.90
39849;DHT22;25518;47.878;15.914;2022-11-20T03:26:47;1.50;99.90
39849;DHT22;25518;47.878;15.914;2022-11-20T03:29:37;1.60;99.90
39849;DHT22;25518;47.878;15.914;2022-11-20T03:32:27;1.60;99.90
39849;DHT22;25518;47.878;15.914;2022-11-20T03:35:16;1.50;99.90
39849;DHT22;25518;47.878;15.914;2022-11-20T03:38:07;1.40;99.90
39849;DHT22;25518;47.878;15.914;2022-11-20T03:41:00;1.30;99.90
39849;DHT22;25518;47.878;15.914;2022-11-20T03:43:51;1.30;99.90
39849;DHT22;25518;47.878;15.914;2022-11-20T03:46:41;1.40;99.90
39849;DHT22;25518;47.878;15.914;2022-11-20T03:49:31;1.40;99.90
39849;DHT22;25518;47.878;15.914;2022-11-20T03:52:20;1.10;99.90
39849;DHT22;25518;47.878;15.914;2022-11-20T03:55:10;1.20;99.90
39849;DHT22;25518;47.878;15.914;2022-11-20T03:58:00;1.30;99.90
39849;DHT22;25518;47.878;15.914;2022-11-20T04:00:49;1.40;99.90
39849;DHT22;25518;47.878;15.914;2022-11-20T04:03:40;1.40;99.90
39849;DHT22;25518;47.878;15.914;2022-11-20T04:06:34;1.30;99.90
39849;DHT22;25518;47.878;15.914;2022-11-20T04:09:24;1.40;99.90
39849;DHT22;25518;47.878;15.914;2022-11-20T04:12:13;1.30;99.90
39849;DHT22;25518;47.878;15.914;2022-11-20T04:15:03;1.20;99.90
39849;DHT22;25518;47.878;15.914;2022-11-20T04:17:54;1.30;99.90
39849;DHT22;25518;47.878;15.914;2022-11-20T04:20:43;1.30;99.90
39849;DHT22;25518;47.878;15.914;2022-11-20T04:23:33;1.30;99.90
39849;DHT22;25518;47.878;15.914;2022-11-20T04:26:24;1.40;99.90
39849;DHT22;25518;47.878;15.914;2022-11-20T04:29:14;1.40;99.90
39849;DHT22;25518;47.878;15.914;2022-11-20T04:32:04;1.40;99.90
39849;DHT22;25518;47.878;15.914;2022-11-20T04:34:53;1.30;99.90
39849;DHT22;25518;47.878;15.914;2022-11-20T04:37:43;1.20;99.90
39849;DHT22;25518;47.878;15.914;2022-11-20T04:40:32;1.10;99.90
39849;DHT22;25518;47.878;15.914;2022-11-20T04:43:22;1.20;99.90
39849;DHT22;25518;47.878;15.914;2022-11-20T04:46:11;1.10;99.90
39849;DHT22;25518;47.878;15.914;2022-11-20T04:49:02;1.10;99.90
39849;DHT22;25518;47.878;15.914;2022-11-20T04:51:53;1.00;99.90
39849;DHT22;25518;47.878;15.914;2022-11-20T04:54:43;1.10;99.90
39849;DHT22;25518;47.878;15.914;2022-11-20T04:57:32;1.10;99.90
39849;DHT22;25518;47.878;15.914;2022-11-20T05:00:22;1.20;99.90
39849;DHT22;25518;47.878;15.914;2022-11-20T05:03:11;1.20;99.90
39849;DHT22;25518;47.878;15.914;2022-11-20T05:06:03;1.20;99.90
39849;DHT22;25518;47.878;15.914;2022-11-20T05:08:53;1.10;99.90
39849;DHT22;25518;47.878;15.914;2022-11-20T05:11:43;1.20;99.90
39849;DHT22;25518;47.878;15.914;2022-11-20T05:14:32;1.30;99.90
39849;DHT22;25518;47.878;15.914;2022-11-20T05:17:22;1.40;99.90
39849;DHT22;25518;47.878;15.914;2022-11-20T05:20:11;1.10;99.90
39849;DHT22;25518;47.878;15.914;2022-11-20T05:23:01;1.00;99.90
39849;DHT22;25518;47.878;15.914;2022-11-20T05:25:53;1.20;99.90
39849;DHT22;25518;47.878;15.914;2022-11-20T05:28:43;1.20;99.90
39849;DHT22;25518;47.878;15.914;2022-11-20T05:31:33;1.30;99.90
39849;DHT22;25518;47.878;15.914;2022-11-20T05:34:22;1.30;99.90
39849;DHT22;25518;47.878;15.914;2022-11-20T05:37:12;1.30;99.90
39849;DHT22;25518;47.878;15.914;2022-11-20T05:40:02;1.20;99.90
39849;DHT22;25518;47.878;15.914;2022-11-20T05:42:52;1.30;99.90
39849;DHT22;25518;47.878;15.914;2022-11-20T05:45:41;1.20;99.90
39849;DHT22;25518;47.878;15.914;2022-11-20T05:48:31;1.20;99.90
39849;DHT22;25518;47.878;15.914;2022-11-20T05:51:22;1.20;99.90
39849;DHT22;25518;47.878;15.914;2022-11-20T05:54:12;1.20;99.90
39849;DHT22;25518;47.878;15.914;2022-11-20T05:57:02;1.30;99.90
39849;DHT22;25518;47.878;15.914;2022-11-20T05:59:52;1.40;99.90
39849;DHT22;25518;47.878;15.914;2022-11-20T06:02:42;1.50;99.90
39849;DHT22;25518;47.878;15.914;2022-11-20T06:05:31;1.40;99.90
39849;DHT22;25518;47.878;15.914;2022-11-20T06:08:22;1.20;99.90
39849;DHT22;25518;47.878;15.914;2022-11-20T06:11:13;1.10;99.90
39849;DHT22;25518;47.878;15.914;2022-11-20T06:14:03;1.00;99.90
39849;DHT22;25518;47.878;15.914;2022-11-20T06:16:52;1.00;99.90
39849;DHT22;25518;47.878;15.914;2022-11-20T06:19:42;1.00;99.90
39849;DHT22;25518;47.878;15.914;2022-11-20T06:22:32;0.90;99.90
39849;DHT22;25518;47.878;15.914;2022-11-20T06:25:21;0.80;99.90
39849;DHT22;25518;47.878;15.914;2022-11-20T06:28:11;0.80;99.90
39849;DHT22;25518;47.878;15.914;2022-11-20T06:31:01;0.80;99.90
39849;DHT22;25518;47.878;15.914;2022-11-20T06:33:51;0.80;99.90
39849;DHT22;25518;47.878;15.914;2022-11-20T06:36:41;0.90;99.90
39849;DHT22;25518;47.878;15.914;2022-11-20T06:39:31;0.80;99.90
39849;DHT22;25518;47.878;15.914;2022-11-20T06:42:21;0.90;99.90
39849;DHT22;25518;47.878;15.914;2022-11-20T06:45:10;1.10;99.90
39849;DHT22;25518;47.878;15.914;2022-11-20T06:48:00;1.10;99.90
39849;DHT22;25518;47.878;15.914;2022-11-20T06:50:50;1.20;99.90
39849;DHT22;25518;47.878;15.914;2022-11-20T06:53:39;1.30;99.90
39849;DHT22;25518;47.878;15.914;2022-11-20T06:56:28;1.40;99.90
39849;DHT22;25518;47.878;15.914;2022-11-20T06:59:18;1.30;99.90
39849;DHT22;25518;47.878;15.914;2022-11-20T07:02:11;1.30;99.90
39849;DHT22;25518;47.878;15.914;2022-11-20T07:05:01;1.20;99.90
39849;DHT22;25518;47.878;15.914;2022-11-20T07:07:50;1.30;99.90
39849;DHT22;25518;47.878;15.914;2022-11-20T07:10:40;1.30;99.90
39849;DHT22;25518;47.878;15.914;2022-11-20T07:13:30;1.20;99.90
39849;DHT22;25518;47.878;15.914;2022-11-20T07:16:20;1.30;99.90
39849;DHT22;25518;47.878;15.914;2022-11-20T07:19:09;1.50;99.90
39849;DHT22;25518;47.878;15.914;2022-11-20T07:21:59;1.50;99.90
39849;DHT22;25518;47.878;15.914;2022-11-20T07:24:49;1.50;99.90
39849;DHT22;25518;47.878;15.914;2022-11-20T07:27:38;1.40;99.90
39849;DHT22;25518;47.878;15.914;2022-11-20T07:30:28;1.50;99.90
39849;DHT22;25518;47.878;15.914;2022-11-20T07:33:19;1.40;99.90
39849;DHT22;25518;47.878;15.914;2022-11-20T07:36:08;1.50;99.90
39849;DHT22;25518;47.878;15.914;2022-11-20T07:38:58;1.50;99.90
39849;DHT22;25518;47.878;15.914;2022-11-20T07:41:47;1.50;99.90
39849;DHT22;25518;47.878;15.914;2022-11-20T07:44:37;1.60;99.90
39849;DHT22;25518;47.878;15.914;2022-11-20T07:47:27;1.50;99.90
39849;DHT22;25518;47.878;15.914;2022-11-20T07:50:18;1.60;99.90
39849;DHT22;25518;47.878;15.914;2022-11-20T07:53:07;1.70;99.90
39849;DHT22;25518;47.878;15.914;2022-11-20T07:56:02;1.70;99.90
39849;DHT22;25518;47.878;15.914;2022-11-20T07:58:52;1.80;99.90
39849;DHT22;25518;47.878;15.914;2022-11-20T08:01:42;1.70;99.90
39849;DHT22;25518;47.878;15.914;2022-11-20T08:04:31;1.60;99.90
39849;DHT22;25518;47.878;15.914;2022-11-20T08:07:22;1.70;99.90
39849;DHT22;25518;47.878;15.914;2022-11-20T08:10:13;1.70;99.90
39849;DHT22;25518;47.878;15.914;2022-11-20T08:13:03;1.50;99.90
39849;DHT22;25518;47.878;15.914;2022-11-20T08:16:12;1.70;99.90
39849;DHT22;25518;47.878;15.914;2022-11-20T08:19:02;1.80;99.90
39849;DHT22;25518;47.878;15.914;2022-11-20T08:21:51;2.00;99.90
39849;DHT22;25518;47.878;15.914;2022-11-20T08:24:41;2.00;99.90
39849;DHT22;25518;47.878;15.914;2022-11-20T08:27:31;2.00;99.90
39849;DHT22;25518;47.878;15.914;2022-11-20T08:30:21;1.90;99.90
39849;DHT22;25518;47.878;15.914;2022-11-20T08:33:11;2.00;99.90
39849;DHT22;25518;47.878;15.914;2022-11-20T08:36:02;2.10;99.90
39849;DHT22;25518;47.878;15.914;2022-11-20T08:38:54;2.10;99.90
39849;DHT22;25518;47.878;15.914;2022-11-20T08:41:43;2.10;99.90
39849;DHT22;25518;47.878;15.914;2022-11-20T08:44:33;2.20;99.90
39849;DHT22;25518;47.878;15.914;2022-11-20T08:47:23;2.20;99.90
39849;DHT22;25518;47.878;15.914;2022-11-20T08:50:14;2.20;99.90
39849;DHT22;25518;47.878;15.914;2022-11-20T08:53:04;2.20;99.90
39849;DHT22;25518;47.878;15.914;2022-11-20T08:55:56;2.30;99.90
39849;DHT22;25518;47.878;15.914;2022-11-20T08:58:45;2.40;99.90
39849;DHT22;25518;47.878;15.914;2022-11-20T09:01:35;2.50;99.90
39849;DHT22;25518;47.878;15.914;2022-11-20T09:04:25;2.30;99.90
39849;DHT22;25518;47.878;15.914;2022-11-20T09:07:14;2.30;99.90
39849;DHT22;25518;47.878;15.914;2022-11-20T09:10:04;2.30;99.90
39849;DHT22;25518;47.878;15.914;2022-11-20T09:12:55;2.40;99.90
39849;DHT22;25518;47.878;15.914;2022-11-20T09:15:44;2.40;99.90
39849;DHT22;25518;47.878;15.914;2022-11-20T09:18:35;2.50;99.90
39849;DHT22;25518;47.878;15.914;2022-11-20T09:21:28;2.60;99.90
39849;DHT22;25518;47.878;15.914;2022-11-20T09:24:18;2.80;99.90
39849;DHT22;25518;47.878;15.914;2022-11-20T09:27:09;2.90;99.90
39849;DHT22;25518;47.878;15.914;2022-11-20T09:29:59;2.90;99.90
39849;DHT22;25518;47.878;15.914;2022-11-20T09:32:49;2.80;99.90
39849;DHT22;25518;47.878;15.914;2022-11-20T09:35:39;3.00;99.90
39849;DHT22;25518;47.878;15.914;2022-11-20T09:38:28;3.10;99.90
39849;DHT22;25518;47.878;15.914;2022-11-20T09:41:27;3.20;99.90
39849;DHT22;25518;47.878;15.914;2022-11-20T09:56:51;3.10;99.90
39849;DHT22;25518;47.878;15.914;2022-11-20T09:59:46;3.00;99.90
39849;DHT22;25518;47.878;15.914;2022-11-20T10:05:48;2.90;99.90
39849;DHT22;25518;47.878;15.914;2022-11-20T10:08:59;2.90;99.90
39849;DHT22;25518;47.878;15.914;2022-11-20T10:12:05;2.90;99.90
39849;DHT22;25518;47.878;15.914;2022-11-20T10:25:15;3.40;99.90
39849;DHT22;25518;47.878;15.914;2022-11-20T10:28:04;3.60;99.90
39849;DHT22;25518;47.878;15.914;2022-11-20T10:31:02;3.70;99.90
39849;DHT22;25518;47.878;15.914;2022-11-20T10:33:54;3.70;99.90
39849;DHT22;25518;47.878;15.914;2022-11-20T10:36:55;3.70;99.90
39849;DHT22;25518;47.878;15.914;2022-11-20T10:46:06;3.80;99.90
39849;DHT22;25518;47.878;15.914;2022-11-20T10:48:45;3.70;99.90
39849;DHT22;25518;47.878;15.914;2022-11-20T10:55:06;3.90;99.90
39849;DHT22;25518;47.878;15.914;2022-11-20T10:58:08;3.90;99.90
39849;DHT22;25518;47.878;15.914;2022-11-20T11:01:16;4.00;99.90
39849;DHT22;25518;47.878;15.914;2022-11-20T11:04:18;3.90;99.90
39849;DHT22;25518;47.878;15.914;2022-11-20T11:07:33;3.90;99.90
39849;DHT22;25518;47.878;15.914;2022-11-20T11:11:00;4.00;99.90
39849;DHT22;25518;47.878;15.914;2022-11-20T11:13:37;3.80;99.90
39849;DHT22;25518;47.878;15.914;2022-11-20T11:16:27;3.80;99.90
39849;DHT22;25518;47.878;15.914;2022-11-20T11:19:17;3.80;99.90
39849;DHT22;25518;47.878;15.914;2022-11-20T11:22:15;3.70;99.90
39849;DHT22;25518;47.878;15.914;2022-11-20T11:25:17;3.60;99.90
39849;DHT22;25518;47.878;15.914;2022-11-20T11:28:25;3.50;99.90
39849;DHT22;25518;47.878;15.914;2022-11-20T11:31:34;3.50;99.90
39849;DHT22;25518;47.878;15.914;2022-11-20T11:34:24;3.40;99.90
39849;DHT22;25518;47.878;15.914;2022-11-20T11:37:18;3.30;99.90
39849;DHT22;25518;47.878;15.914;2022-11-20T11:40:11;3.40;99.90
39849;DHT22;25518;47.878;15.914;2022-11-20T11:43:05;3.20;99.90
39849;DHT22;25518;47.878;15.914;2022-11-20T11:46:35;3.30;99.90
39849;DHT22;25518;47.878;15.914;2022-11-20T11:49:25;3.50;99.90
39849;DHT22;25518;47.878;15.914;2022-11-20T11:52:17;3.30;99.90
39849;DHT22;25518;47.878;15.914;2022-11-20T11:55:14;3.20;99.90
39849;DHT22;25518;47.878;15.914;2022-11-20T12:01:27;3.30;99.90
39849;DHT22;25518;47.878;15.914;2022-11-20T12:07:42;3.30;99.90
39849;DHT22;25518;47.878;15.914;2022-11-20T12:10:41;3.30;99.90
39849;DHT22;25518;47.878;15.914;2022-11-20T12:16:23;3.60;99.90
39849;DHT22;25518;47.878;15.914;2022-11-20T12:19:14;3.60;99.90
39849;DHT22;25518;47.878;15.914;2022-11-20T12:25:08;3.90;99.90
39849;DHT22;25518;47.878;15.914;2022-11-20T12:37:30;4.30;99.90
39849;DHT22;25518;47.878;15.914;2022-11-20T12:43:48;4.30;99.90
39849;DHT22;25518;47.878;15.914;2022-11-20T12:47:24;4.60;99.90
39849;DHT22;25518;47.878;15.914;2022-11-20T12:56:30;4.90;99.90
39849;DHT22;25518;47.878;15.914;2022-11-20T13:03:27;5.10;99.90
39849;DHT22;25518;47.878;15.914;2022-11-20T13:06:19;5.20;99.90
39849;DHT22;25518;47.878;15.914;2022-11-20T13:09:13;5.10;99.90
39849;DHT22;25518;47.878;15.914;2022-11-20T13:12:08;4.90;99.90
39849;DHT22;25518;47.878;15.914;2022-11-20T13:15:09;4.70;99.90
39849;DHT22;25518;47.878;15.914;2022-11-20T13:18:09;4.60;99.90
39849;DHT22;25518;47.878;15.914;2022-11-20T13:21:00;4.50;99.90
39849;DHT22;25518;47.878;15.914;2022-11-20T13:23:50;4.60;99.90
39849;DHT22;25518;47.878;15.914;2022-11-20T13:26:40;4.60;99.90
39849;DHT22;25518;47.878;15.914;2022-11-20T13:29:31;4.60;99.90
39849;DHT22;25518;47.878;15.914;2022-11-20T13:32:21;4.60;99.90
39849;DHT22;25518;47.878;15.914;2022-11-20T13:35:11;4.70;99.90
39849;DHT22;25518;47.878;15.914;2022-11-20T13:38:04;4.70;99.90
39849;DHT22;25518;47.878;15.914;2022-11-20T13:43:44;5.20;99.90
39849;DHT22;25518;47.878;15.914;2022-11-20T13:46:38;5.60;99.90
39849;DHT22;25518;47.878;15.914;2022-11-20T13:49:33;5.70;99.90
39849;DHT22;25518;47.878;15.914;2022-11-20T13:55:59;5.30;99.90
39849;DHT22;25518;47.878;15.914;2022-11-20T14:01:51;4.90;99.90
39849;DHT22;25518;47.878;15.914;2022-11-20T14:04:45;4.80;99.90
39849;DHT22;25518;47.878;15.914;2022-11-20T14:07:41;4.70;99.90
39849;DHT22;25518;47.878;15.914;2022-11-20T14:10:31;4.60;99.90
39849;DHT22;25518;47.878;15.914;2022-11-20T14:13:21;4.50;99.90
39849;DHT22;25518;47.878;15.914;2022-11-20T14:16:11;4.40;99.90
39849;DHT22;25518;47.878;15.914;2022-11-20T14:22:15;4.20;99.90
39849;DHT22;25518;47.878;15.914;2022-11-20T14:28:02;4.20;99.90
39849;DHT22;25518;47.878;15.914;2022-11-20T14:30:54;4.20;99.90
39849;DHT22;25518;47.878;15.914;2022-11-20T14:33:44;4.20;99.90
39849;DHT22;25518;47.878;15.914;2022-11-20T14:36:34;4.00;99.90
39849;DHT22;25518;47.878;15.914;2022-11-20T14:39:32;4.00;99.90
39849;DHT22;25518;47.878;15.914;2022-11-20T14:42:26;4.00;99.90
39849;DHT22;25518;47.878;15.914;2022-11-20T14:45:16;4.00;99.90
39849;DHT22;25518;47.878;15.914;2022-11-20T14:48:08;4.10;99.90
39849;DHT22;25518;47.878;15.914;2022-11-20T14:50:58;4.00;99.90
39849;DHT22;25518;47.878;15.914;2022-11-20T14:53:48;1.90;99.90
39849;DHT22;25518;47.878;15.914;2022-11-20T14:56:38;3.80;99.90
39849;DHT22;25518;47.878;15.914;2022-11-20T14:59:30;3.80;99.90
39849;DHT22;25518;47.878;15.914;2022-11-20T15:02:20;3.80;99.90
39849;DHT22;25518;47.878;15.914;2022-11-20T15:05:12;3.60;99.90
39849;DHT22;25518;47.878;15.914;2022-11-20T15:08:08;3.40;99.90
39849;DHT22;25518;47.878;15.914;2022-11-20T15:10:59;3.20;99.90
39849;DHT22;25518;47.878;15.914;2022-11-20T15:13:49;3.30;99.90
39849;DHT22;25518;47.878;15.914;2022-11-20T15:16:39;3.30;99.90
39849;DHT22;25518;47.878;15.914;2022-11-20T15:19:29;3.20;99.90
39849;DHT22;25518;47.878;15.914;2022-11-20T15:22:18;3.20;99.90
39849;DHT22;25518;47.878;15.914;2022-11-20T15:25:12;2.90;99.90
39849;DHT22;25518;47.878;15.914;2022-11-20T15:28:04;2.80;99.90
39849;DHT22;25518;47.878;15.914;2022-11-20T15:30:54;2.70;99.90
39849;DHT22;25518;47.878;15.914;2022-11-20T15:33:45;2.70;99.90
39849;DHT22;25518;47.878;15.914;2022-11-20T15:36:35;2.60;99.90
39849;DHT22;25518;47.878;15.914;2022-11-20T15:39:24;2.60;99.90
39849;DHT22;25518;47.878;15.914;2022-11-20T15:42:14;2.40;99.90
39849;DHT22;25518;47.878;15.914;2022-11-20T15:45:04;2.30;99.90
39849;DHT22;25518;47.878;15.914;2022-11-20T15:47:54;2.50;99.90
39849;DHT22;25518;47.878;15.914;2022-11-20T15:51:36;2.50;99.90
39849;DHT22;25518;47.878;15.914;2022-11-20T15:53:59;2.10;99.90
39849;DHT22;25518;47.878;15.914;2022-11-20T15:56:49;2.20;99.90
39849;DHT22;25518;47.878;15.914;2022-11-20T15:59:41;2.20;99.90
39849;DHT22;25518;47.878;15.914;2022-11-20T16:02:31;2.30;99.90
39849;DHT22;25518;47.878;15.914;2022-11-20T16:05:20;2.20;99.90
39849;DHT22;25518;47.878;15.914;2022-11-20T16:08:12;2.10;99.90
39849;DHT22;25518;47.878;15.914;2022-11-20T16:11:02;2.20;99.90
39849;DHT22;25518;47.878;15.914;2022-11-20T16:13:52;2.20;99.90
39849;DHT22;25518;47.878;15.914;2022-11-20T16:17:02;2.00;99.90
39849;DHT22;25518;47.878;15.914;2022-11-20T16:19:51;1.70;99.90
39849;DHT22;25518;47.878;15.914;2022-11-20T16:22:41;2.10;99.90
39849;DHT22;25518;47.878;15.914;2022-11-20T16:25:31;2.00;99.90
39849;DHT22;25518;47.878;15.914;2022-11-20T16:28:20;1.90;99.90
39849;DHT22;25518;47.878;15.914;2022-11-20T16:31:13;1.90;99.90
39849;DHT22;25518;47.878;15.914;2022-11-20T16:34:06;1.80;99.90
39849;DHT22;25518;47.878;15.914;2022-11-20T16:36:55;1.80;99.90
39849;DHT22;25518;47.878;15.914;2022-11-20T16:39:45;1.80;99.90
39849;DHT22;25518;47.878;15.914;2022-11-20T16:42:36;1.80;99.90
39849;DHT22;25518;47.878;15.914;2022-11-20T16:45:26;1.90;99.90
39849;DHT22;25518;47.878;15.914;2022-11-20T16:48:16;1.80;99.90
39849;DHT22;25518;47.878;15.914;2022-11-20T16:51:08;1.90;99.90
39849;DHT22;25518;47.878;15.914;2022-11-20T16:54:01;1.80;99.90
39849;DHT22;25518;47.878;15.914;2022-11-20T16:56:51;1.80;99.90
39849;DHT22;25518;47.878;15.914;2022-11-20T16:59:42;1.70;99.90
39849;DHT22;25518;47.878;15.914;2022-11-20T17:02:32;1.70;99.90
39849;DHT22;25518;47.878;15.914;2022-11-20T17:05:21;1.60;99.90
39849;DHT22;25518;47.878;15.914;2022-11-20T17:08:11;1.60;99.90
39849;DHT22;25518;47.878;15.914;2022-11-20T17:11:05;1.60;99.90
39849;DHT22;25518;47.878;15.914;2022-11-20T17:13:57;1.60;99.90
39849;DHT22;25518;47.878;15.914;2022-11-20T17:16:49;1.60;99.90
39849;DHT22;25518;47.878;15.914;2022-11-20T17:19:38;1.50;99.90
39849;DHT22;25518;47.878;15.914;2022-11-20T17:22:28;1.40;99.90
39849;DHT22;25518;47.878;15.914;2022-11-20T17:25:18;1.50;99.90
39849;DHT22;25518;47.878;15.914;2022-11-20T17:28:07;1.50;99.90
39849;DHT22;25518;47.878;15.914;2022-11-20T17:30:59;1.50;99.90
39849;DHT22;25518;47.878;15.914;2022-11-20T17:33:49;1.30;99.90
39849;DHT22;25518;47.878;15.914;2022-11-20T17:36:39;1.30;99.90
39849;DHT22;25518;47.878;15.914;2022-11-20T17:39:32;1.40;99.90
39849;DHT22;25518;47.878;15.914;2022-11-20T17:42:22;1.50;99.90
39849;DHT22;25518;47.878;15.914;2022-11-20T17:45:15;1.50;99.90
39849;DHT22;25518;47.878;15.914;2022-11-20T17:48:04;1.30;99.90
39849;DHT22;25518;47.878;15.914;2022-11-20T17:51:00;1.40;99.90
39849;DHT22;25518;47.878;15.914;2022-11-20T17:53:54;1.40;99.90
39849;DHT22;25518;47.878;15.914;2022-11-20T17:56:44;1.30;99.90
39849;DHT22;25518;47.878;15.914;2022-11-20T17:59:54;1.30;99.90
39849;DHT22;25518;47.878;15.914;2022-11-20T18:02:44;1.20;99.90
39849;DHT22;25518;47.878;15.914;2022-11-20T18:05:33;1.20;99.90
39849;DHT22;25518;47.878;15.914;2022-11-20T18:08:23;1.20;99.90
39849;DHT22;25518;47.878;15.914;2022-11-20T18:11:16;1.10;99.90
39849;DHT22;25518;47.878;15.914;2022-11-20T18:14:09;1.20;99.90
39849;DHT22;25518;47.878;15.914;2022-11-20T18:17:19;1.10;99.90
39849;DHT22;25518;47.878;15.914;2022-11-20T18:20:09;1.00;99.90
39849;DHT22;25518;47.878;15.914;2022-11-20T18:22:59;0.90;99.90
39849;DHT22;25518;47.878;15.914;2022-11-20T18:25:50;1.00;99.90
39849;DHT22;25518;47.878;15.914;2022-11-20T18:28:39;1.10;99.90
39849;DHT22;25518;47.878;15.914;2022-11-20T18:31:29;1.00;99.90
39849;DHT22;25518;47.878;15.914;2022-11-20T18:34:19;0.90;99.90
39849;DHT22;25518;47.878;15.914;2022-11-20T18:37:09;0.70;99.90
39849;DHT22;25518;47.878;15.914;2022-11-20T18:39:59;0.90;99.90
39849;DHT22;25518;47.878;15.914;2022-11-20T18:42:49;0.80;99.90
39849;DHT22;25518;47.878;15.914;2022-11-20T18:46:02;0.80;99.90
39849;DHT22;25518;47.878;15.914;2022-11-20T18:48:52;0.70;99.90
39849;DHT22;25518;47.878;15.914;2022-11-20T18:51:42;0.80;99.90
39849;DHT22;25518;47.878;15.914;2022-11-20T18:54:34;0.70;99.90
39849;DHT22;25518;47.878;15.914;2022-11-20T18:57:27;0.70;99.90
39849;DHT22;25518;47.878;15.914;2022-11-20T19:00:16;0.60;99.90
39849;DHT22;25518;47.878;15.914;2022-11-20T19:03:06;0.70;99.90
39849;DHT22;25518;47.878;15.914;2022-11-20T19:05:55;0.70;99.90
39849;DHT22;25518;47.878;15.914;2022-11-20T19:08:45;0.70;99.90
39849;DHT22;25518;47.878;15.914;2022-11-20T19:11:35;0.60;99.90
39849;DHT22;25518;47.878;15.914;2022-11-20T19:14:25;0.60;99.90
39849;DHT22;25518;47.878;15.914;2022-11-20T19:17:15;0.60;99.90
39849;DHT22;25518;47.878;15.914;2022-11-20T19:20:06;0.50;99.90
39849;DHT22;25518;47.878;15.914;2022-11-20T19:22:56;0.50;99.90
39849;DHT22;25518;47.878;15.914;2022-11-20T19:25:46;0.60;99.90
39849;DHT22;25518;47.878;15.914;2022-11-20T19:28:36;0.70;99.90
39849;DHT22;25518;47.878;15.914;2022-11-20T19:31:26;0.70;99.90
39849;DHT22;25518;47.878;15.914;2022-11-20T19:34:15;0.80;99.90
39849;DHT22;25518;47.878;15.914;2022-11-20T19:37:05;0.60;99.90
39849;DHT22;25518;47.878;15.914;2022-11-20T19:39:55;0.80;99.90
39849;DHT22;25518;47.878;15.914;2022-11-20T19:42:47;-0.70;99.90
39849;DHT22;25518;47.878;15.914;2022-11-20T19:45:37;0.90;99.90
39849;DHT22;25518;47.878;15.914;2022-11-20T19:48:36;0.90;99.90
39849;DHT22;25518;47.878;15.914;2022-11-20T19:51:28;0.90;99.90